sensor_id;sensor_type;location;lat;lon;timestamp;pressure;altitude;pressure_sealevel;temperature;humidity
73106;BME280;61559;50.476;15.588;2023-04-15T00:02:00;96145.86;;;7.98;93.31
73106;BME280;61559;50.476;15.588;2023-04-15T00:04:31;96144.61;;;8.00;93.17
73106;BME280;61559;50.476;15.588;2023-04-15T00:07:03;96143.67;;;8.03;93.04
73106;BME280;61559;50.476;15.588;2023-04-15T00:09:32;96141.09;;;8.05;92.95
73106;BME280;61559;50.476;15.588;2023-04-15T00:12:04;96135.52;;;8.04;92.95
73106;BME280;61559;50.476;15.588;2023-04-15T00:14:35;96141.41;;;8.06;92.99
73106;BME280;61559;50.476;15.588;2023-04-15T00:17:07;96139.31;;;8.07;92.90
73106;BME280;61559;50.476;15.588;2023-04-15T00:19:38;96137.88;;;8.08;92.94
73106;BME280;61559;50.476;15.588;2023-04-15T00:22:09;96132.49;;;8.09;92.87
73106;BME280;61559;50.476;15.588;2023-04-15T00:24:40;96132.94;;;8.09;92.92
73106;BME280;61559;50.476;15.588;2023-04-15T00:27:10;96130.45;;;8.09;92.73
73106;BME280;61559;50.476;15.588;2023-04-15T00:29:41;96123.93;;;8.07;92.77
73106;BME280;61559;50.476;15.588;2023-04-15T00:32:12;96129.95;;;8.07;92.67
73106;BME280;61559;50.476;15.588;2023-04-15T00:34:44;96166.94;;;8.07;92.85
73106;BME280;61559;50.476;15.588;2023-04-15T00:37:15;96209.40;;;8.06;92.86
73106;BME280;61559;50.476;15.588;2023-04-15T00:39:45;96208.50;;;8.03;92.34
73106;BME280;61559;50.476;15.588;2023-04-15T00:42:16;96208.20;;;7.96;91.70
73106;BME280;61559;50.476;15.588;2023-04-15T00:44:48;96215.79;;;7.85;90.48
73106;BME280;61559;50.476;15.588;2023-04-15T00:47:19;96220.39;;;7.72;89.86
73106;BME280;61559;50.476;15.588;2023-04-15T00:49:51;96221.64;;;7.61;89.82
73106;BME280;61559;50.476;15.588;2023-04-15T00:52:22;96225.41;;;7.50;89.79
73106;BME280;61559;50.476;15.588;2023-04-15T00:54:52;96223.83;;;7.43;89.94
73106;BME280;61559;50.476;15.588;2023-04-15T00:57:23;96228.35;;;7.33;90.06
73106;BME280;61559;50.476;15.588;2023-04-15T00:59:55;96226.45;;;7.27;90.02
73106;BME280;61559;50.476;15.588;2023-04-15T01:02:26;96229.02;;;7.21;90.06
73106;BME280;61559;50.476;15.588;2023-04-15T01:04:58;96227.06;;;7.14;90.03
73106;BME280;61559;50.476;15.588;2023-04-15T01:07:30;96230.36;;;7.10;90.04
73106;BME280;61559;50.476;15.588;2023-04-15T01:10:03;96238.77;;;7.04;90.19
73106;BME280;61559;50.476;15.588;2023-04-15T01:12:34;96244.41;;;7.00;90.35
73106;BME280;61559;50.476;15.588;2023-04-15T01:15:08;96248.87;;;6.96;90.43
73106;BME280;61559;50.476;15.588;2023-04-15T01:17:40;96248.58;;;6.93;90.60
73106;BME280;61559;50.476;15.588;2023-04-15T01:20:12;96249.96;;;6.91;90.70
73106;BME280;61559;50.476;15.588;2023-04-15T01:22:45;96254.61;;;6.88;90.76
73106;BME280;61559;50.476;15.588;2023-04-15T01:25:19;96256.11;;;6.84;90.63
73106;BME280;61559;50.476;15.588;2023-04-15T01:27:52;96256.95;;;6.81;90.53
73106;BME280;61559;50.476;15.588;2023-04-15T01:30:23;96259.08;;;6.78;90.80
73106;BME280;61559;50.476;15.588;2023-04-15T01:32:55;96260.91;;;6.74;90.95
73106;BME280;61559;50.476;15.588;2023-04-15T01:35:25;96267.25;;;6.71;90.96
73106;BME280;61559;50.476;15.588;2023-04-15T01:38:01;96269.23;;;6.67;90.87
73106;BME280;61559;50.476;15.588;2023-04-15T01:40:33;96271.80;;;6.66;90.74
73106;BME280;61559;50.476;15.588;2023-04-15T01:43:04;96276.71;;;6.64;90.57
73106;BME280;61559;50.476;15.588;2023-04-15T01:45:36;96275.82;;;6.62;90.68
73106;BME280;61559;50.476;15.588;2023-04-15T01:48:06;96274.54;;;6.59;90.63
73106;BME280;61559;50.476;15.588;2023-04-15T01:50:38;96285.42;;;6.54;90.45
73106;BME280;61559;50.476;15.588;2023-04-15T01:53:09;96286.84;;;6.51;90.29
73106;BME280;61559;50.476;15.588;2023-04-15T01:55:40;96286.67;;;6.47;90.20
73106;BME280;61559;50.476;15.588;2023-04-15T01:58:11;96291.16;;;6.44;90.16
73106;BME280;61559;50.476;15.588;2023-04-15T02:00:43;96296.33;;;6.39;89.75
73106;BME280;61559;50.476;15.588;2023-04-15T02:03:12;96294.13;;;6.33;89.47
73106;BME280;61559;50.476;15.588;2023-04-15T02:05:44;96294.08;;;6.24;89.21
73106;BME280;61559;50.476;15.588;2023-04-15T02:08:16;96298.55;;;6.19;89.26
73106;BME280;61559;50.476;15.588;2023-04-15T02:10:47;96307.98;;;6.15;89.26
73106;BME280;61559;50.476;15.588;2023-04-15T02:13:19;96308.89;;;6.13;89.49
73106;BME280;61559;50.476;15.588;2023-04-15T02:15:50;96314.64;;;6.09;89.41
73106;BME280;61559;50.476;15.588;2023-04-15T02:18:22;96314.00;;;6.05;89.44
73106;BME280;61559;50.476;15.588;2023-04-15T02:20:53;96317.48;;;6.04;89.57
73106;BME280;61559;50.476;15.588;2023-04-15T02:23:26;96312.83;;;6.02;89.55
73106;BME280;61559;50.476;15.588;2023-04-15T02:25:57;96310.21;;;6.01;89.38
73106;BME280;61559;50.476;15.588;2023-04-15T02:28:29;96307.71;;;5.99;89.32
73106;BME280;61559;50.476;15.588;2023-04-15T02:31:00;96312.67;;;5.99;89.46
73106;BME280;61559;50.476;15.588;2023-04-15T02:33:35;96311.63;;;6.00;89.45
73106;BME280;61559;50.476;15.588;2023-04-15T02:36:07;96316.98;;;6.01;89.38
73106;BME280;61559;50.476;15.588;2023-04-15T02:38:40;96319.77;;;5.99;89.25
73106;BME280;61559;50.476;15.588;2023-04-15T02:41:12;96322.04;;;5.99;89.33
73106;BME280;61559;50.476;15.588;2023-04-15T02:43:43;96326.67;;;5.98;89.15
73106;BME280;61559;50.476;15.588;2023-04-15T02:46:13;96330.36;;;5.98;89.17
73106;BME280;61559;50.476;15.588;2023-04-15T02:48:44;96333.77;;;5.93;89.01
73106;BME280;61559;50.476;15.588;2023-04-15T02:51:14;96336.13;;;5.91;89.12
73106;BME280;61559;50.476;15.588;2023-04-15T02:53:45;96343.52;;;5.87;89.05
73106;BME280;61559;50.476;15.588;2023-04-15T02:56:17;96350.41;;;5.85;89.01
73106;BME280;61559;50.476;15.588;2023-04-15T02:58:48;96353.23;;;5.82;88.81
73106;BME280;61559;50.476;15.588;2023-04-15T03:01:20;96353.54;;;5.79;88.68
73106;BME280;61559;50.476;15.588;2023-04-15T03:03:52;96357.06;;;5.74;88.41
73106;BME280;61559;50.476;15.588;2023-04-15T03:06:22;96365.18;;;5.69;88.11
73106;BME280;61559;50.476;15.588;2023-04-15T03:08:53;96369.02;;;5.64;88.11
73106;BME280;61559;50.476;15.588;2023-04-15T03:11:25;96363.30;;;5.61;88.11
73106;BME280;61559;50.476;15.588;2023-04-15T03:13:56;96364.13;;;5.58;88.12
73106;BME280;61559;50.476;15.588;2023-04-15T03:16:28;96366.02;;;5.56;88.23
73106;BME280;61559;50.476;15.588;2023-04-15T03:18:59;96368.91;;;5.56;88.37
73106;BME280;61559;50.476;15.588;2023-04-15T03:21:30;96372.77;;;5.55;88.38
73106;BME280;61559;50.476;15.588;2023-04-15T03:24:01;96372.03;;;5.54;88.35
73106;BME280;61559;50.476;15.588;2023-04-15T03:26:32;96373.98;;;5.51;88.24
73106;BME280;61559;50.476;15.588;2023-04-15T03:29:03;96383.48;;;5.48;88.33
73106;BME280;61559;50.476;15.588;2023-04-15T03:31:35;96386.27;;;5.46;88.22
73106;BME280;61559;50.476;15.588;2023-04-15T03:34:04;96384.92;;;5.44;88.12
73106;BME280;61559;50.476;15.588;2023-04-15T03:36:36;96384.70;;;5.38;87.90
73106;BME280;61559;50.476;15.588;2023-04-15T03:39:07;96387.61;;;5.34;87.68
73106;BME280;61559;50.476;15.588;2023-04-15T03:41:37;96388.73;;;5.30;87.52
73106;BME280;61559;50.476;15.588;2023-04-15T03:44:08;96394.15;;;5.25;87.78
73106;BME280;61559;50.476;15.588;2023-04-15T03:46:37;96390.54;;;5.22;87.61
73106;BME280;61559;50.476;15.588;2023-04-15T03:49:08;96393.27;;;5.18;87.50
73106;BME280;61559;50.476;15.588;2023-04-15T03:51:39;96397.40;;;5.16;87.41
73106;BME280;61559;50.476;15.588;2023-04-15T03:54:10;96402.55;;;5.13;87.41
73106;BME280;61559;50.476;15.588;2023-04-15T03:56:43;96399.96;;;5.11;87.40
73106;BME280;61559;50.476;15.588;2023-04-15T03:59:14;96400.42;;;5.11;87.64
73106;BME280;61559;50.476;15.588;2023-04-15T04:01:46;96399.77;;;5.13;87.84
73106;BME280;61559;50.476;15.588;2023-04-15T04:04:17;96405.95;;;5.13;87.82
73106;BME280;61559;50.476;15.588;2023-04-15T04:06:48;96409.48;;;5.10;87.43
73106;BME280;61559;50.476;15.588;2023-04-15T04:09:18;96408.98;;;5.09;87.33
73106;BME280;61559;50.476;15.588;2023-04-15T04:11:50;96411.95;;;5.05;87.53
73106;BME280;61559;50.476;15.588;2023-04-15T04:14:20;96414.97;;;5.04;87.64
73106;BME280;61559;50.476;15.588;2023-04-15T04:16:58;96420.91;;;5.02;87.66
73106;BME280;61559;50.476;15.588;2023-04-15T04:19:29;96414.20;;;4.98;87.37
73106;BME280;61559;50.476;15.588;2023-04-15T04:22:00;96422.45;;;4.99;87.41
73106;BME280;61559;50.476;15.588;2023-04-15T04:24:29;96430.77;;;4.99;87.52
73106;BME280;61559;50.476;15.588;2023-04-15T04:27:00;96433.45;;;4.96;87.45
73106;BME280;61559;50.476;15.588;2023-04-15T04:29:31;96436.72;;;4.92;87.45
73106;BME280;61559;50.476;15.588;2023-04-15T04:32:02;96437.73;;;4.88;87.09
73106;BME280;61559;50.476;15.588;2023-04-15T04:34:34;96435.18;;;4.82;86.72
73106;BME280;61559;50.476;15.588;2023-04-15T04:37:03;96438.13;;;4.83;86.83
73106;BME280;61559;50.476;15.588;2023-04-15T04:39:35;96440.06;;;4.79;86.88
73106;BME280;61559;50.476;15.588;2023-04-15T04:42:06;96444.50;;;4.77;87.20
73106;BME280;61559;50.476;15.588;2023-04-15T04:44:38;96448.46;;;4.78;87.31
73106;BME280;61559;50.476;15.588;2023-04-15T04:47:09;96448.95;;;4.80;87.50
73106;BME280;61559;50.476;15.588;2023-04-15T04:49:38;96450.54;;;4.80;87.69
73106;BME280;61559;50.476;15.588;2023-04-15T04:52:09;96451.10;;;4.78;87.85
73106;BME280;61559;50.476;15.588;2023-04-15T04:54:41;96454.52;;;4.76;88.05
73106;BME280;61559;50.476;15.588;2023-04-15T04:57:12;96457.05;;;4.73;87.88
73106;BME280;61559;50.476;15.588;2023-04-15T04:59:41;96453.73;;;4.73;87.77
73106;BME280;61559;50.476;15.588;2023-04-15T05:02:12;96449.16;;;4.73;87.64
73106;BME280;61559;50.476;15.588;2023-04-15T05:04:44;96451.93;;;4.76;87.71
73106;BME280;61559;50.476;15.588;2023-04-15T05:07:15;96453.02;;;4.79;87.94
73106;BME280;61559;50.476;15.588;2023-04-15T05:09:46;96458.28;;;4.79;87.58
73106;BME280;61559;50.476;15.588;2023-04-15T05:12:17;96456.08;;;4.79;87.24
73106;BME280;61559;50.476;15.588;2023-04-15T05:14:48;96459.09;;;4.77;86.93
73106;BME280;61559;50.476;15.588;2023-04-15T05:17:19;96464.92;;;4.82;87.05
73106;BME280;61559;50.476;15.588;2023-04-15T05:19:52;96464.50;;;4.83;87.01
73106;BME280;61559;50.476;15.588;2023-04-15T05:22:22;96468.84;;;4.83;86.83
73106;BME280;61559;50.476;15.588;2023-04-15T05:24:53;96471.36;;;4.80;86.66
73106;BME280;61559;50.476;15.588;2023-04-15T05:27:24;96473.89;;;4.81;87.01
73106;BME280;61559;50.476;15.588;2023-04-15T05:29:54;96477.26;;;4.83;86.65
73106;BME280;61559;50.476;15.588;2023-04-15T05:32:25;96479.48;;;4.82;86.28
73106;BME280;61559;50.476;15.588;2023-04-15T05:34:56;96478.08;;;4.83;85.84
73106;BME280;61559;50.476;15.588;2023-04-15T05:37:28;96480.45;;;4.86;85.81
73106;BME280;61559;50.476;15.588;2023-04-15T05:39:57;96481.84;;;4.87;86.02
73106;BME280;61559;50.476;15.588;2023-04-15T05:42:29;96480.61;;;4.87;86.49
73106;BME280;61559;50.476;15.588;2023-04-15T05:45:00;96474.66;;;4.86;86.71
73106;BME280;61559;50.476;15.588;2023-04-15T05:47:34;96480.73;;;4.93;86.70
73106;BME280;61559;50.476;15.588;2023-04-15T05:50:07;96485.04;;;4.98;86.94
73106;BME280;61559;50.476;15.588;2023-04-15T05:52:38;96490.45;;;5.02;86.73
73106;BME280;61559;50.476;15.588;2023-04-15T05:55:10;96489.93;;;5.06;86.94
73106;BME280;61559;50.476;15.588;2023-04-15T05:57:41;96486.65;;;5.11;87.07
73106;BME280;61559;50.476;15.588;2023-04-15T06:00:11;96495.89;;;5.16;86.80
73106;BME280;61559;50.476;15.588;2023-04-15T06:02:42;96497.58;;;5.18;86.36
73106;BME280;61559;50.476;15.588;2023-04-15T06:05:14;96500.11;;;5.20;86.05
73106;BME280;61559;50.476;15.588;2023-04-15T06:07:43;96503.09;;;5.21;85.52
73106;BME280;61559;50.476;15.588;2023-04-15T06:10:19;96500.07;;;5.19;84.65
73106;BME280;61559;50.476;15.588;2023-04-15T06:12:51;96499.38;;;5.19;84.77
73106;BME280;61559;50.476;15.588;2023-04-15T06:15:22;96505.61;;;5.24;84.73
73106;BME280;61559;50.476;15.588;2023-04-15T06:17:53;96506.10;;;5.27;84.16
73106;BME280;61559;50.476;15.588;2023-04-15T06:20:25;96507.10;;;5.28;83.61
73106;BME280;61559;50.476;15.588;2023-04-15T06:22:56;96509.27;;;5.29;84.07
73106;BME280;61559;50.476;15.588;2023-04-15T06:25:27;96510.02;;;5.32;84.55
73106;BME280;61559;50.476;15.588;2023-04-15T06:27:57;96515.98;;;5.34;84.19
73106;BME280;61559;50.476;15.588;2023-04-15T06:30:28;96518.73;;;5.32;83.96
73106;BME280;61559;50.476;15.588;2023-04-15T06:33:00;96520.81;;;5.33;84.05
73106;BME280;61559;50.476;15.588;2023-04-15T06:35:34;96527.88;;;5.34;83.91
73106;BME280;61559;50.476;15.588;2023-04-15T06:38:03;96529.71;;;5.36;83.90
73106;BME280;61559;50.476;15.588;2023-04-15T06:40:35;96531.79;;;5.37;84.00
73106;BME280;61559;50.476;15.588;2023-04-15T06:43:06;96538.46;;;5.38;83.76
73106;BME280;61559;50.476;15.588;2023-04-15T06:45:37;96539.40;;;5.42;84.50
73106;BME280;61559;50.476;15.588;2023-04-15T06:48:07;96541.19;;;5.46;84.16
73106;BME280;61559;50.476;15.588;2023-04-15T06:50:38;96538.46;;;5.47;84.06
73106;BME280;61559;50.476;15.588;2023-04-15T06:53:10;96540.55;;;5.53;84.02
73106;BME280;61559;50.476;15.588;2023-04-15T06:55:40;96542.39;;;5.56;83.21
73106;BME280;61559;50.476;15.588;2023-04-15T06:58:12;96540.69;;;5.59;82.57
73106;BME280;61559;50.476;15.588;2023-04-15T07:00:41;96534.58;;;5.63;83.00
73106;BME280;61559;50.476;15.588;2023-04-15T07:03:14;96539.73;;;5.70;83.47
73106;BME280;61559;50.476;15.588;2023-04-15T07:05:45;96544.20;;;5.80;83.44
73106;BME280;61559;50.476;15.588;2023-04-15T07:08:14;96544.09;;;5.91;83.40
73106;BME280;61559;50.476;15.588;2023-04-15T07:10:46;96545.84;;;5.96;82.31
73106;BME280;61559;50.476;15.588;2023-04-15T07:13:17;96544.24;;;6.02;82.71
73106;BME280;61559;50.476;15.588;2023-04-15T07:15:48;96551.17;;;6.15;83.11
73106;BME280;61559;50.476;15.588;2023-04-15T07:18:19;96550.70;;;6.25;82.26
73106;BME280;61559;50.476;15.588;2023-04-15T07:20:52;96549.33;;;6.28;81.08
73106;BME280;61559;50.476;15.588;2023-04-15T07:23:23;96552.33;;;6.30;81.20
73106;BME280;61559;50.476;15.588;2023-04-15T07:25:54;96555.10;;;6.32;81.15
73106;BME280;61559;50.476;15.588;2023-04-15T07:28:26;96558.80;;;6.35;81.53
73106;BME280;61559;50.476;15.588;2023-04-15T07:30:55;96565.35;;;6.38;81.45
73106;BME280;61559;50.476;15.588;2023-04-15T07:33:26;96565.99;;;6.39;80.92
73106;BME280;61559;50.476;15.588;2023-04-15T07:35:58;96568.76;;;6.42;80.58
73106;BME280;61559;50.476;15.588;2023-04-15T07:38:29;96573.66;;;6.40;79.78
73106;BME280;61559;50.476;15.588;2023-04-15T07:41:00;96577.23;;;6.35;79.65
73106;BME280;61559;50.476;15.588;2023-04-15T07:43:31;96579.35;;;6.33;79.77
73106;BME280;61559;50.476;15.588;2023-04-15T07:46:01;96581.84;;;6.34;80.25
73106;BME280;61559;50.476;15.588;2023-04-15T07:48:32;96582.84;;;6.33;80.13
73106;BME280;61559;50.476;15.588;2023-04-15T07:51:06;96586.33;;;6.36;80.36
73106;BME280;61559;50.476;15.588;2023-04-15T07:53:37;96586.20;;;6.38;79.92
73106;BME280;61559;50.476;15.588;2023-04-15T07:56:07;96585.40;;;6.40;79.42
73106;BME280;61559;50.476;15.588;2023-04-15T07:58:38;96583.73;;;6.42;79.95
73106;BME280;61559;50.476;15.588;2023-04-15T08:01:10;96584.16;;;6.49;79.96
73106;BME280;61559;50.476;15.588;2023-04-15T08:03:41;96587.11;;;6.51;79.88
73106;BME280;61559;50.476;15.588;2023-04-15T08:06:12;96588.02;;;6.55;80.21
73106;BME280;61559;50.476;15.588;2023-04-15T08:08:43;96589.08;;;6.57;80.34
73106;BME280;61559;50.476;15.588;2023-04-15T08:11:15;96597.19;;;6.60;80.01
73106;BME280;61559;50.476;15.588;2023-04-15T08:13:44;96598.88;;;6.62;79.83
73106;BME280;61559;50.476;15.588;2023-04-15T08:16:23;96599.98;;;6.64;79.81
73106;BME280;61559;50.476;15.588;2023-04-15T08:18:56;96598.85;;;6.69;79.42
73106;BME280;61559;50.476;15.588;2023-04-15T08:21:27;96594.96;;;6.71;78.81
73106;BME280;61559;50.476;15.588;2023-04-15T08:24:00;96597.60;;;6.76;79.80
73106;BME280;61559;50.476;15.588;2023-04-15T08:26:31;96600.75;;;6.84;79.92
73106;BME280;61559;50.476;15.588;2023-04-15T08:29:03;96596.73;;;6.91;79.04
73106;BME280;61559;50.476;15.588;2023-04-15T08:31:37;96597.86;;;7.00;78.41
73106;BME280;61559;50.476;15.588;2023-04-15T08:34:09;96598.61;;;7.09;78.60
73106;BME280;61559;50.476;15.588;2023-04-15T08:36:41;96599.95;;;7.18;77.90
73106;BME280;61559;50.476;15.588;2023-04-15T08:39:10;96600.08;;;7.23;77.30
73106;BME280;61559;50.476;15.588;2023-04-15T08:41:46;96603.44;;;7.26;76.52
73106;BME280;61559;50.476;15.588;2023-04-15T08:44:18;96599.15;;;7.32;76.76
73106;BME280;61559;50.476;15.588;2023-04-15T08:46:51;96599.23;;;7.45;76.53
73106;BME280;61559;50.476;15.588;2023-04-15T08:49:25;96602.03;;;7.53;75.86
73106;BME280;61559;50.476;15.588;2023-04-15T08:51:58;96603.60;;;7.66;76.99
73106;BME280;61559;50.476;15.588;2023-04-15T08:54:30;96602.14;;;7.77;75.43
73106;BME280;61559;50.476;15.588;2023-04-15T08:57:01;96603.23;;;7.79;74.34
73106;BME280;61559;50.476;15.588;2023-04-15T08:59:33;96598.77;;;7.79;75.01
73106;BME280;61559;50.476;15.588;2023-04-15T09:02:04;96601.55;;;7.86;74.66
73106;BME280;61559;50.476;15.588;2023-04-15T09:04:35;96607.16;;;7.95;75.51
73106;BME280;61559;50.476;15.588;2023-04-15T09:07:07;96604.59;;;8.04;74.74
73106;BME280;61559;50.476;15.588;2023-04-15T09:09:40;96603.76;;;8.12;74.34
73106;BME280;61559;50.476;15.588;2023-04-15T09:12:12;96607.87;;;8.14;73.42
73106;BME280;61559;50.476;15.588;2023-04-15T09:14:44;96610.23;;;8.17;73.80
73106;BME280;61559;50.476;15.588;2023-04-15T09:17:18;96609.30;;;8.23;74.22
73106;BME280;61559;50.476;15.588;2023-04-15T09:20:08;96609.71;;;8.24;73.48
73106;BME280;61559;50.476;15.588;2023-04-15T09:22:41;96612.33;;;8.22;73.04
73106;BME280;61559;50.476;15.588;2023-04-15T09:25:29;96614.85;;;8.18;73.32
73106;BME280;61559;50.476;15.588;2023-04-15T09:28:03;96614.02;;;8.18;73.70
73106;BME280;61559;50.476;15.588;2023-04-15T09:30:35;96617.48;;;8.18;73.30
73106;BME280;61559;50.476;15.588;2023-04-15T09:33:06;96618.09;;;8.21;73.50
73106;BME280;61559;50.476;15.588;2023-04-15T09:35:39;96616.90;;;8.29;73.39
73106;BME280;61559;50.476;15.588;2023-04-15T09:38:10;96621.05;;;8.37;72.80
73106;BME280;61559;50.476;15.588;2023-04-15T09:40:40;96622.19;;;8.44;72.00
73106;BME280;61559;50.476;15.588;2023-04-15T09:43:11;96622.24;;;8.48;71.81
73106;BME280;61559;50.476;15.588;2023-04-15T09:45:48;96626.89;;;8.58;71.64
73106;BME280;61559;50.476;15.588;2023-04-15T09:48:21;96629.06;;;8.63;71.21
73106;BME280;61559;50.476;15.588;2023-04-15T09:50:52;96634.06;;;8.64;71.62
73106;BME280;61559;50.476;15.588;2023-04-15T09:53:24;96636.40;;;8.66;70.97
73106;BME280;61559;50.476;15.588;2023-04-15T09:55:58;96638.19;;;8.62;71.08
73106;BME280;61559;50.476;15.588;2023-04-15T09:58:31;96640.33;;;8.62;70.73
73106;BME280;61559;50.476;15.588;2023-04-15T10:01:05;96638.17;;;8.64;70.95
73106;BME280;61559;50.476;15.588;2023-04-15T10:03:36;96643.96;;;8.64;71.23
73106;BME280;61559;50.476;15.588;2023-04-15T10:06:08;96645.23;;;8.64;71.10
73106;BME280;61559;50.476;15.588;2023-04-15T10:08:40;96645.47;;;8.67;71.51
73106;BME280;61559;50.476;15.588;2023-04-15T10:11:12;96646.46;;;8.70;71.38
73106;BME280;61559;50.476;15.588;2023-04-15T10:13:45;96648.66;;;8.81;71.24
73106;BME280;61559;50.476;15.588;2023-04-15T10:16:18;96645.21;;;8.86;70.70
73106;BME280;61559;50.476;15.588;2023-04-15T10:18:54;96640.98;;;8.90;70.12
73106;BME280;61559;50.476;15.588;2023-04-15T10:21:26;96640.55;;;8.97;70.12
73106;BME280;61559;50.476;15.588;2023-04-15T10:23:58;96640.23;;;9.09;70.53
73106;BME280;61559;50.476;15.588;2023-04-15T10:26:31;96642.53;;;9.22;69.57
73106;BME280;61559;50.476;15.588;2023-04-15T10:29:03;96643.94;;;9.29;69.85
73106;BME280;61559;50.476;15.588;2023-04-15T10:31:35;96646.73;;;9.34;69.00
73106;BME280;61559;50.476;15.588;2023-04-15T10:34:07;96651.59;;;9.36;68.69
73106;BME280;61559;50.476;15.588;2023-04-15T10:36:39;96651.08;;;9.43;68.59
73106;BME280;61559;50.476;15.588;2023-04-15T10:39:38;96655.23;;;9.42;68.12
73106;BME280;61559;50.476;15.588;2023-04-15T10:42:10;96656.39;;;9.30;68.38
73106;BME280;61559;50.476;15.588;2023-04-15T10:44:44;96661.04;;;9.24;68.97
73106;BME280;61559;50.476;15.588;2023-04-15T10:47:16;96657.56;;;9.17;68.76
73106;BME280;61559;50.476;15.588;2023-04-15T10:49:50;96668.26;;;9.18;68.78
73106;BME280;61559;50.476;15.588;2023-04-15T10:52:25;96669.45;;;9.14;68.95
73106;BME280;61559;50.476;15.588;2023-04-15T10:55:11;96671.48;;;9.11;68.16
73106;BME280;61559;50.476;15.588;2023-04-15T10:57:43;96669.82;;;9.06;67.98
73106;BME280;61559;50.476;15.588;2023-04-15T11:00:17;96670.71;;;9.04;67.24
73106;BME280;61559;50.476;15.588;2023-04-15T11:02:53;96670.02;;;9.03;68.53
73106;BME280;61559;50.476;15.588;2023-04-15T11:05:53;96678.45;;;9.11;69.40
73106;BME280;61559;50.476;15.588;2023-04-15T11:08:54;96677.10;;;9.19;70.09
73106;BME280;61559;50.476;15.588;2023-04-15T11:14:36;96683.61;;;9.04;70.18
73106;BME280;61559;50.476;15.588;2023-04-15T11:17:09;96686.48;;;9.08;69.55
73106;BME280;61559;50.476;15.588;2023-04-15T11:19:41;96684.30;;;9.11;68.56
73106;BME280;61559;50.476;15.588;2023-04-15T11:22:13;96682.70;;;9.15;67.61
73106;BME280;61559;50.476;15.588;2023-04-15T11:24:47;96681.21;;;9.19;67.43
73106;BME280;61559;50.476;15.588;2023-04-15T11:27:23;96683.21;;;9.22;66.23
73106;BME280;61559;50.476;15.588;2023-04-15T11:29:54;96680.73;;;9.32;66.22
73106;BME280;61559;50.476;15.588;2023-04-15T11:32:25;96678.26;;;9.41;66.47
73106;BME280;61559;50.476;15.588;2023-04-15T11:34:56;96678.52;;;9.47;65.67
73106;BME280;61559;50.476;15.588;2023-04-15T11:37:33;96680.92;;;9.48;65.46
73106;BME280;61559;50.476;15.588;2023-04-15T11:40:05;96679.94;;;9.55;66.37
73106;BME280;61559;50.476;15.588;2023-04-15T11:42:37;96679.92;;;9.69;65.78
73106;BME280;61559;50.476;15.588;2023-04-15T11:45:18;96681.40;;;9.78;65.43
73106;BME280;61559;50.476;15.588;2023-04-15T11:47:51;96685.02;;;9.84;66.81
73106;BME280;61559;50.476;15.588;2023-04-15T11:50:24;96686.27;;;9.89;65.08
73106;BME280;61559;50.476;15.588;2023-04-15T11:52:56;96694.06;;;9.81;65.26
73106;BME280;61559;50.476;15.588;2023-04-15T11:55:28;96698.94;;;9.75;66.20
73106;BME280;61559;50.476;15.588;2023-04-15T11:58:11;96696.31;;;9.64;65.82
73106;BME280;61559;50.476;15.588;2023-04-15T12:00:49;96699.58;;;9.53;65.07
73106;BME280;61559;50.476;15.588;2023-04-15T12:03:25;96695.08;;;9.46;65.87
73106;BME280;61559;50.476;15.588;2023-04-15T12:06:20;96701.38;;;9.50;65.88
73106;BME280;61559;50.476;15.588;2023-04-15T12:09:00;96702.09;;;9.56;65.78
73106;BME280;61559;50.476;15.588;2023-04-15T12:11:36;96703.19;;;9.68;65.21
73106;BME280;61559;50.476;15.588;2023-04-15T12:14:08;96704.84;;;9.76;64.91
73106;BME280;61559;50.476;15.588;2023-04-15T12:16:41;96709.00;;;9.82;65.19
73106;BME280;61559;50.476;15.588;2023-04-15T12:19:22;96712.95;;;9.86;63.89
73106;BME280;61559;50.476;15.588;2023-04-15T12:21:58;96712.23;;;9.84;63.83
73106;BME280;61559;50.476;15.588;2023-04-15T12:24:33;96717.34;;;9.85;64.58
73106;BME280;61559;50.476;15.588;2023-04-15T12:27:05;96716.25;;;9.86;64.19
73106;BME280;61559;50.476;15.588;2023-04-15T12:29:38;96713.96;;;9.88;63.80
73106;BME280;61559;50.476;15.588;2023-04-15T12:32:11;96717.76;;;9.95;65.00
73106;BME280;61559;50.476;15.588;2023-04-15T12:34:44;96714.52;;;10.06;64.71
73106;BME280;61559;50.476;15.588;2023-04-15T12:37:19;96714.10;;;10.14;63.53
73106;BME280;61559;50.476;15.588;2023-04-15T12:39:52;96715.41;;;10.23;64.18
73106;BME280;61559;50.476;15.588;2023-04-15T12:42:23;96716.85;;;10.29;62.85
73106;BME280;61559;50.476;15.588;2023-04-15T12:44:54;96721.27;;;10.34;61.90
73106;BME280;61559;50.476;15.588;2023-04-15T12:47:26;96723.98;;;10.36;61.91
73106;BME280;61559;50.476;15.588;2023-04-15T12:49:57;96723.18;;;10.36;61.61
73106;BME280;61559;50.476;15.588;2023-04-15T12:52:28;96725.54;;;10.37;62.03
73106;BME280;61559;50.476;15.588;2023-04-15T12:55:00;96720.70;;;10.40;62.15
73106;BME280;61559;50.476;15.588;2023-04-15T12:57:31;96715.18;;;10.48;61.72
73106;BME280;61559;50.476;15.588;2023-04-15T13:00:03;96719.61;;;10.59;63.40
73106;BME280;61559;50.476;15.588;2023-04-15T13:02:36;96719.97;;;10.74;62.23
73106;BME280;61559;50.476;15.588;2023-04-15T13:05:08;96721.41;;;10.86;62.56
73106;BME280;61559;50.476;15.588;2023-04-15T13:07:40;96723.23;;;10.96;60.94
73106;BME280;61559;50.476;15.588;2023-04-15T13:10:11;96727.86;;;10.98;59.96
73106;BME280;61559;50.476;15.588;2023-04-15T13:12:43;96734.48;;;10.93;58.36
73106;BME280;61559;50.476;15.588;2023-04-15T13:15:16;96733.59;;;10.85;59.22
73106;BME280;61559;50.476;15.588;2023-04-15T13:17:49;96737.34;;;10.90;60.96
73106;BME280;61559;50.476;15.588;2023-04-15T13:20:20;96737.77;;;11.03;61.14
73106;BME280;61559;50.476;15.588;2023-04-15T13:22:52;96739.20;;;11.15;61.10
73106;BME280;61559;50.476;15.588;2023-04-15T13:25:23;96741.88;;;11.24;60.40
73106;BME280;61559;50.476;15.588;2023-04-15T13:27:54;96740.44;;;11.17;58.52
73106;BME280;61559;50.476;15.588;2023-04-15T13:30:26;96740.26;;;11.08;58.15